createdAt,value
2017-06-17T00:01:11.946Z,2.00
2017-06-17T00:03:38.682Z,2.07
2017-06-17T00:06:05.479Z,2.00
2017-06-17T00:08:32.239Z,2.10
2017-06-17T00:11:07.047Z,2.07
2017-06-17T00:13:33.849Z,2.00
2017-06-17T00:16:00.598Z,2.30
2017-06-17T00:18:27.400Z,2.03
2017-06-17T00:20:54.165Z,2.20
2017-06-17T00:23:20.902Z,2.30
2017-06-17T00:25:47.659Z,2.33
2017-06-17T00:28:14.377Z,2.30
2017-06-17T00:30:41.195Z,2.03
2017-06-17T00:33:07.947Z,2.10
2017-06-17T00:35:34.699Z,2.30
2017-06-17T00:38:01.555Z,2.53
2017-06-17T00:40:28.299Z,2.20
2017-06-17T00:42:55.090Z,2.30
2017-06-17T00:45:21.813Z,2.47
2017-06-17T00:47:48.568Z,2.70
2017-06-17T00:50:15.329Z,2.40
2017-06-17T00:52:44.362Z,2.53
2017-06-17T00:55:12.771Z,2.70
2017-06-17T00:57:39.498Z,1.83
2017-06-17T01:00:06.268Z,3.00
2017-06-17T01:02:32.994Z,2.30
2017-06-17T01:04:59.735Z,2.70
2017-06-17T01:07:26.529Z,2.60
2017-06-17T01:09:53.300Z,2.70
2017-06-17T01:12:20.032Z,2.60
2017-06-17T01:14:46.832Z,2.87
2017-06-17T01:17:13.580Z,3.10
2017-06-17T01:19:40.413Z,2.90
2017-06-17T01:22:07.134Z,2.73
2017-06-17T01:24:33.921Z,2.70
2017-06-17T01:27:00.753Z,2.53
2017-06-17T01:29:27.526Z,2.53
2017-06-17T01:31:54.346Z,3.73
2017-06-17T01:34:21.093Z,2.60
2017-06-17T01:36:47.873Z,2.50
2017-06-17T01:39:14.701Z,2.30
2017-06-17T01:41:41.457Z,2.30
2017-06-17T01:44:08.243Z,2.90
2017-06-17T01:46:35.033Z,2.63
2017-06-17T01:49:01.828Z,2.17
2017-06-17T01:51:28.647Z,3.30
2017-06-17T01:53:55.442Z,2.20
2017-06-17T01:56:22.236Z,2.67
2017-06-17T01:58:49.095Z,2.60
2017-06-17T02:01:15.835Z,2.57
2017-06-17T02:03:42.644Z,2.30
2017-06-17T02:06:09.362Z,2.67
2017-06-17T02:08:36.168Z,2.57
2017-06-17T02:11:02.945Z,2.53
2017-06-17T02:13:29.701Z,2.97
2017-06-17T02:15:56.457Z,2.30
2017-06-17T02:18:23.242Z,2.80
2017-06-17T02:20:50.110Z,2.20
2017-06-17T02:23:16.893Z,2.60
2017-06-17T02:25:43.605Z,2.60
2017-06-17T02:28:10.373Z,2.37
2017-06-17T02:30:37.144Z,2.27
2017-06-17T02:33:04.014Z,2.17
2017-06-17T02:35:30.765Z,2.10
2017-06-17T02:38:04.293Z,2.17
2017-06-17T02:40:31.188Z,2.50
2017-06-17T02:42:58.002Z,2.23
2017-06-17T02:45:24.818Z,2.80
2017-06-17T02:47:51.562Z,2.23
2017-06-17T02:50:18.304Z,2.57
2017-06-17T02:52:45.067Z,1.93
2017-06-17T02:55:11.885Z,2.03
2017-06-17T02:57:38.725Z,2.23
2017-06-17T03:00:05.518Z,2.40
2017-06-17T03:02:32.278Z,2.10
2017-06-17T03:04:59.071Z,2.50
2017-06-17T03:07:25.867Z,2.37
2017-06-17T03:09:52.694Z,2.33
2017-06-17T03:12:19.448Z,2.50
2017-06-17T03:14:46.194Z,2.73
2017-06-17T03:17:12.960Z,2.60
2017-06-17T03:19:42.804Z,2.17
2017-06-17T03:22:10.671Z,2.30
2017-06-17T03:24:37.477Z,2.70
2017-06-17T03:27:04.262Z,2.00
2017-06-17T03:29:31.079Z,2.00
2017-06-17T03:31:57.848Z,2.57
2017-06-17T03:34:24.671Z,2.30
2017-06-17T03:36:51.399Z,2.80
2017-06-17T03:39:18.125Z,2.40
2017-06-17T03:41:44.891Z,2.40
2017-06-17T03:44:11.717Z,3.20
2017-06-17T03:46:38.533Z,2.73
2017-06-17T03:49:05.252Z,2.70
2017-06-17T03:51:31.962Z,2.90
2017-06-17T03:54:00.704Z,2.80
2017-06-17T03:56:28.900Z,3.23
2017-06-17T03:58:56.921Z,2.70
2017-06-17T04:01:26.711Z,2.53
2017-06-17T04:03:54.411Z,2.70
2017-06-17T04:06:24.627Z,2.17
2017-06-17T04:08:54.379Z,2.33
2017-06-17T04:11:23.831Z,2.57
2017-06-17T04:13:54.791Z,3.17
2017-06-17T04:16:25.315Z,2.50
2017-06-17T04:18:53.425Z,3.00
2017-06-17T04:21:20.219Z,2.63
2017-06-17T04:23:50.765Z,2.50
2017-06-17T04:26:19.296Z,2.40
2017-06-17T04:28:47.674Z,2.67
2017-06-17T04:31:17.250Z,2.40
2017-06-17T04:33:45.546Z,2.97
2017-06-17T04:36:15.536Z,2.23
2017-06-17T04:38:45.035Z,2.30
2017-06-17T04:41:13.389Z,2.60
2017-06-17T04:43:42.811Z,2.83
2017-06-17T04:46:13.424Z,2.10
2017-06-17T04:48:43.771Z,2.37
2017-06-17T04:51:13.752Z,2.00
2017-06-17T04:53:42.672Z,2.30
2017-06-17T04:56:12.713Z,2.40
2017-06-17T04:58:42.904Z,2.67
2017-06-17T05:01:13.725Z,2.80
2017-06-17T05:03:44.603Z,2.90
2017-06-17T05:06:12.931Z,2.90
2017-06-17T05:08:42.917Z,2.50
2017-06-17T05:11:13.413Z,2.67
2017-06-17T05:13:42.085Z,2.40
2017-06-17T05:16:11.335Z,2.63
2017-06-17T05:18:40.737Z,2.40
2017-06-17T05:21:08.522Z,2.40
2017-06-17T05:23:35.337Z,2.37
2017-06-17T05:26:04.416Z,2.70
2017-06-17T05:28:34.904Z,2.53
2017-06-17T05:31:02.902Z,3.00
2017-06-17T05:33:32.393Z,2.40
2017-06-17T05:36:01.792Z,3.20
2017-06-17T05:38:31.317Z,2.53
2017-06-17T05:40:58.117Z,2.87
2017-06-17T05:43:24.922Z,2.70
2017-06-17T05:45:51.689Z,2.60
2017-06-17T05:48:18.496Z,3.00
2017-06-17T05:50:45.242Z,2.70
2017-06-17T05:53:12.094Z,2.43
2017-06-17T05:55:38.894Z,2.67
2017-06-17T05:58:05.645Z,2.60
2017-06-17T06:00:32.442Z,2.97
2017-06-17T06:02:59.225Z,2.87
2017-06-17T06:05:35.042Z,2.70
2017-06-17T06:08:14.989Z,3.57
2017-06-17T06:10:54.809Z,2.80
2017-06-17T06:13:33.536Z,3.20
2017-06-17T06:16:03.383Z,2.77
2017-06-17T06:18:30.148Z,2.80
2017-06-17T06:20:56.875Z,3.63
2017-06-17T06:23:23.679Z,3.30
2017-06-17T06:25:50.407Z,3.20
2017-06-17T06:28:17.171Z,3.50
2017-06-17T06:30:43.917Z,3.77
2017-06-17T06:33:10.673Z,3.70
2017-06-17T06:35:37.426Z,2.87
2017-06-17T06:38:04.311Z,3.43
2017-06-17T06:40:31.077Z,3.40
2017-06-17T06:42:57.829Z,3.23
2017-06-17T06:45:24.604Z,3.73
2017-06-17T06:47:51.411Z,3.50
2017-06-17T06:50:18.120Z,3.43
2017-06-17T06:52:44.870Z,3.47
2017-06-17T06:55:11.684Z,3.60
2017-06-17T06:57:38.464Z,3.10
2017-06-17T07:00:05.273Z,3.80
2017-06-17T07:02:32.760Z,3.20
2017-06-17T07:04:59.651Z,3.90
2017-06-17T07:07:26.385Z,3.37
2017-06-17T07:09:53.165Z,4.20
2017-06-17T07:12:20.002Z,3.53
2017-06-17T07:14:46.759Z,3.73
2017-06-17T07:17:13.602Z,3.30
2017-06-17T07:19:40.380Z,3.40
2017-06-17T07:22:07.127Z,3.20
2017-06-17T07:24:33.889Z,3.37
2017-06-17T07:27:00.604Z,2.97
2017-06-17T07:29:35.705Z,2.90
2017-06-17T07:32:14.470Z,3.40
2017-06-17T07:34:46.913Z,3.23
2017-06-17T07:37:13.654Z,2.87
2017-06-17T07:39:40.412Z,3.10
2017-06-17T07:42:07.179Z,3.57
2017-06-17T07:44:33.909Z,2.50
2017-06-17T07:47:00.706Z,2.90
2017-06-17T07:49:27.470Z,2.83
2017-06-17T07:51:54.180Z,3.37
2017-06-17T07:54:20.931Z,3.10
2017-06-17T07:56:47.676Z,3.20
2017-06-17T07:59:14.465Z,2.90
2017-06-17T08:01:41.189Z,3.10
2017-06-17T08:04:07.873Z,2.80
2017-06-17T08:06:34.620Z,3.33
2017-06-17T08:09:01.350Z,2.80
2017-06-17T08:11:28.171Z,2.97
2017-06-17T08:14:03.609Z,2.80
2017-06-17T08:16:33.637Z,3.20
2017-06-17T08:19:00.332Z,2.97
2017-06-17T08:21:27.034Z,2.83
2017-06-17T08:23:53.775Z,3.17
2017-06-17T08:26:20.465Z,3.27
2017-06-17T08:31:47.763Z,3.00
2017-06-17T08:34:14.528Z,3.30
2017-06-17T08:36:41.344Z,3.57
2017-06-17T08:39:08.098Z,2.93
2017-06-17T08:41:34.830Z,3.13
2017-06-17T08:44:01.592Z,2.97
2017-06-17T08:46:28.343Z,3.03
2017-06-17T08:48:55.093Z,3.50
2017-06-17T08:51:21.872Z,3.57
2017-06-17T08:53:48.633Z,3.40
2017-06-17T08:56:15.423Z,3.03
2017-06-17T08:58:42.177Z,3.50
2017-06-17T09:01:08.971Z,2.60
2017-06-17T09:03:35.709Z,2.50
2017-06-17T09:06:02.424Z,2.63
2017-06-17T09:08:29.191Z,2.33
2017-06-17T09:10:55.913Z,2.20
2017-06-17T09:13:22.701Z,2.83
2017-06-17T09:15:49.448Z,2.63
2017-06-17T09:18:16.142Z,2.33
2017-06-17T09:20:42.877Z,2.33
2017-06-17T09:23:09.650Z,2.17
2017-06-17T09:25:36.416Z,2.30
2017-06-17T09:28:03.125Z,2.33
2017-06-17T09:30:29.874Z,2.50
2017-06-17T09:32:56.649Z,2.63
2017-06-17T09:35:23.363Z,2.73
2017-06-17T09:37:50.224Z,2.63
2017-06-17T09:40:16.953Z,2.70
2017-06-17T09:42:43.659Z,2.30
2017-06-17T09:45:10.418Z,2.30
2017-06-17T09:47:37.143Z,2.40
2017-06-17T09:50:03.961Z,2.40
2017-06-17T09:52:30.692Z,2.47
2017-06-17T09:54:57.443Z,1.80
2017-06-17T09:57:24.347Z,2.40
2017-06-17T09:59:51.114Z,3.23
2017-06-17T10:02:17.874Z,2.30
2017-06-17T10:04:44.620Z,2.27
2017-06-17T10:07:11.403Z,1.90
2017-06-17T10:09:38.193Z,2.10
2017-06-17T10:12:04.961Z,2.37
2017-06-17T10:14:31.798Z,1.90
2017-06-17T10:16:58.521Z,1.90
2017-06-17T10:19:25.233Z,2.13
2017-06-17T10:21:52.010Z,2.20
2017-06-17T10:24:18.692Z,1.97
2017-06-17T10:26:45.424Z,1.97
2017-06-17T10:29:12.226Z,2.07
2017-06-17T10:31:38.945Z,2.20
2017-06-17T10:34:05.690Z,2.40
2017-06-17T10:36:32.437Z,2.10
2017-06-17T10:38:59.188Z,2.70
2017-06-17T10:41:25.947Z,2.13
2017-06-17T10:43:52.680Z,2.10
2017-06-17T10:46:19.387Z,1.90
2017-06-17T10:48:46.114Z,1.70
2017-06-17T10:51:12.938Z,2.00
2017-06-17T10:53:39.714Z,1.67
2017-06-17T10:56:06.429Z,1.80
2017-06-17T10:58:33.125Z,1.97
2017-06-17T11:01:07.335Z,2.03
2017-06-17T11:03:36.602Z,2.20
2017-06-17T11:06:03.371Z,2.13
2017-06-17T11:08:30.102Z,2.10
2017-06-17T11:10:56.787Z,1.43
2017-06-17T11:13:23.780Z,2.27
2017-06-17T11:15:50.497Z,1.73
2017-06-17T11:18:17.265Z,2.13
2017-06-17T11:20:43.970Z,1.60
2017-06-17T11:23:10.673Z,1.23
2017-06-17T11:25:37.902Z,1.70
2017-06-17T11:28:04.629Z,1.63
2017-06-17T11:30:31.422Z,1.83
2017-06-17T11:32:58.142Z,1.40
2017-06-17T11:35:24.898Z,1.40
2017-06-17T11:37:51.685Z,1.40
2017-06-17T11:40:18.385Z,1.40
2017-06-17T11:42:45.156Z,1.70
2017-06-17T11:45:11.940Z,1.67
2017-06-17T11:47:38.681Z,1.87
2017-06-17T11:50:05.419Z,1.80
2017-06-17T11:52:32.162Z,1.63
2017-06-17T11:54:58.893Z,1.50
2017-06-17T11:57:25.596Z,1.30
2017-06-17T11:59:52.338Z,1.33
2017-06-17T12:02:19.070Z,2.03
2017-06-17T12:04:45.809Z,1.00
2017-06-17T12:07:12.621Z,1.40
2017-06-17T12:09:39.345Z,1.30
2017-06-17T12:12:06.078Z,1.80
2017-06-17T12:14:32.848Z,1.70
2017-06-17T12:16:59.552Z,1.40
2017-06-17T12:19:26.311Z,1.60
2017-06-17T12:21:53.001Z,2.10
2017-06-17T12:24:24.671Z,1.33
2017-06-17T12:26:55.209Z,1.40
2017-06-17T12:29:21.915Z,1.80
2017-06-17T12:31:48.666Z,1.60
2017-06-17T12:34:15.361Z,1.60
2017-06-17T12:36:42.083Z,1.33
2017-06-17T12:39:08.822Z,1.47
2017-06-17T12:41:35.525Z,1.33
2017-06-17T12:44:02.288Z,1.33
2017-06-17T12:46:29.025Z,1.27
2017-06-17T12:48:55.740Z,1.37
2017-06-17T12:51:22.486Z,1.50
2017-06-17T12:53:49.232Z,1.60
2017-06-17T12:56:15.993Z,1.20
2017-06-17T12:58:42.701Z,2.10
2017-06-17T13:01:09.427Z,1.47
2017-06-17T13:03:36.146Z,1.30
2017-06-17T13:06:11.803Z,1.37
2017-06-17T13:08:40.097Z,1.70
2017-06-17T13:11:06.814Z,1.50
2017-06-17T13:13:33.504Z,1.50
2017-06-17T13:16:00.272Z,1.50
2017-06-17T13:18:26.978Z,1.57
2017-06-17T13:20:53.718Z,1.40
2017-06-17T13:23:20.411Z,1.80
2017-06-17T13:25:47.169Z,1.90
2017-06-17T13:28:13.901Z,1.70
2017-06-17T13:30:40.617Z,1.80
2017-06-17T13:33:07.374Z,1.37
2017-06-17T13:35:34.090Z,1.57
2017-06-17T13:38:00.805Z,1.27
2017-06-17T13:40:27.529Z,1.37
2017-06-17T13:42:54.254Z,2.00
2017-06-17T13:45:21.036Z,1.70
2017-06-17T13:47:47.737Z,1.77
2017-06-17T13:50:14.471Z,1.70
2017-06-17T13:52:41.202Z,1.33
2017-06-17T13:55:07.954Z,1.67
2017-06-17T13:57:34.756Z,1.70
2017-06-17T14:00:01.506Z,1.70
2017-06-17T14:02:28.221Z,1.60
2017-06-17T14:04:54.949Z,1.90
2017-06-17T14:07:21.677Z,1.77
2017-06-17T14:09:48.433Z,1.10
2017-06-17T14:12:15.154Z,1.33
2017-06-17T14:14:41.881Z,1.53
2017-06-17T14:17:08.609Z,1.43
2017-06-17T14:19:35.313Z,1.67
2017-06-17T14:22:08.077Z,1.23
2017-06-17T14:24:34.780Z,1.30
2017-06-17T14:27:01.473Z,1.60
2017-06-17T14:29:28.214Z,1.23
2017-06-17T14:31:54.922Z,1.30
2017-06-17T14:34:21.637Z,1.60
2017-06-17T14:36:48.404Z,1.57
2017-06-17T14:39:15.157Z,1.47
2017-06-17T14:41:41.903Z,1.83
2017-06-17T14:44:08.697Z,1.57
2017-06-17T14:46:35.407Z,1.57
2017-06-17T14:49:02.123Z,1.47
2017-06-17T14:51:28.853Z,1.90
2017-06-17T14:53:55.644Z,2.13
2017-06-17T14:56:22.411Z,1.60
2017-06-17T14:58:49.159Z,1.70
2017-06-17T15:01:15.942Z,1.80
2017-06-17T15:03:42.639Z,1.90
2017-06-17T15:06:09.382Z,1.50
2017-06-17T15:08:36.093Z,1.60
2017-06-17T15:11:02.829Z,1.73
2017-06-17T15:13:29.565Z,1.60
2017-06-17T15:15:56.282Z,1.67
2017-06-17T15:18:23.059Z,1.53
2017-06-17T15:20:49.781Z,1.63
2017-06-17T15:23:16.505Z,1.70
2017-06-17T15:25:43.258Z,2.20
2017-06-17T15:28:09.990Z,1.63
2017-06-17T15:30:36.762Z,1.60
2017-06-17T15:33:03.477Z,2.00
2017-06-17T15:35:30.187Z,1.70
2017-06-17T15:37:56.905Z,1.57
2017-06-17T15:40:23.635Z,2.17
2017-06-17T15:42:50.376Z,1.73
2017-06-17T15:45:17.089Z,1.93
2017-06-17T15:47:43.868Z,1.93
2017-06-17T15:50:10.592Z,2.63
2017-06-17T15:52:41.115Z,2.70
2017-06-17T15:55:07.849Z,2.00
2017-06-17T15:57:34.590Z,2.50
2017-06-17T16:00:01.375Z,1.50
2017-06-17T16:02:28.162Z,1.80
2017-06-17T16:04:54.933Z,2.00
2017-06-17T16:07:21.717Z,1.83
2017-06-17T16:09:48.473Z,1.73
2017-06-17T16:12:15.295Z,2.10
2017-06-17T16:14:42.049Z,2.00
2017-06-17T16:17:08.794Z,1.70
2017-06-17T16:19:35.567Z,2.10
2017-06-17T16:22:02.329Z,2.17
2017-06-17T16:24:29.052Z,2.00
2017-06-17T16:26:55.942Z,1.90
2017-06-17T16:29:22.681Z,1.70
2017-06-17T16:31:49.437Z,2.30
2017-06-17T16:34:21.251Z,2.10
2017-06-17T16:36:47.940Z,2.33
2017-06-17T16:39:14.695Z,2.03
2017-06-17T16:41:41.413Z,1.67
2017-06-17T16:44:08.186Z,1.87
2017-06-17T16:46:35.001Z,2.13
2017-06-17T16:49:01.740Z,1.80
2017-06-17T16:51:28.513Z,1.53
2017-06-17T16:53:55.229Z,3.60
2017-06-17T16:56:21.991Z,2.20
2017-06-17T16:58:48.718Z,1.60
2017-06-17T17:01:15.469Z,1.70
2017-06-17T17:03:42.217Z,1.80
2017-06-17T17:06:08.947Z,1.90
2017-06-17T17:08:35.727Z,1.73
2017-06-17T17:11:02.431Z,1.67
2017-06-17T17:13:29.170Z,1.83
2017-06-17T17:16:01.669Z,1.70
2017-06-17T17:18:28.407Z,2.00
2017-06-17T17:20:55.121Z,1.90
2017-06-17T17:23:21.838Z,2.00
2017-06-17T17:25:48.575Z,1.63
2017-06-17T17:28:15.283Z,1.73
2017-06-17T17:30:42.033Z,1.70
2017-06-17T17:33:08.778Z,1.70
2017-06-17T17:35:35.593Z,2.03
2017-06-17T17:38:02.325Z,1.83
2017-06-17T17:40:29.059Z,2.00
2017-06-17T17:42:55.794Z,1.70
2017-06-17T17:45:22.497Z,1.90
2017-06-17T17:47:49.217Z,2.30
2017-06-17T17:50:15.976Z,2.07
2017-06-17T17:52:42.745Z,2.67
2017-06-17T17:55:09.507Z,2.40
2017-06-17T17:57:42.605Z,2.17
2017-06-17T18:00:09.409Z,2.10
2017-06-17T18:02:36.137Z,2.00
2017-06-17T18:05:02.898Z,2.40
2017-06-17T18:07:29.637Z,2.07
2017-06-17T18:09:56.441Z,2.57
2017-06-17T18:12:23.149Z,2.20
2017-06-17T18:14:49.881Z,1.83
2017-06-17T18:17:16.615Z,2.60
2017-06-17T18:19:43.350Z,2.90
2017-06-17T18:22:10.077Z,2.90
2017-06-17T18:24:36.776Z,2.73
2017-06-17T18:27:03.548Z,2.70
2017-06-17T18:29:30.248Z,2.90
2017-06-17T18:31:56.978Z,3.47
2017-06-17T18:34:23.778Z,3.40
2017-06-17T18:36:50.519Z,2.90
2017-06-17T18:39:17.286Z,2.47
2017-06-17T18:41:44.013Z,3.10
2017-06-17T18:44:10.726Z,3.00
2017-06-17T18:46:37.472Z,3.90
2017-06-17T18:49:04.196Z,2.93
2017-06-17T18:51:30.925Z,3.00
2017-06-17T18:53:57.645Z,3.20
2017-06-17T18:56:24.455Z,2.97
2017-06-17T18:58:51.204Z,3.30
2017-06-17T19:01:17.942Z,3.73
2017-06-17T19:03:44.669Z,3.00
2017-06-17T19:06:11.376Z,3.20
2017-06-17T19:08:38.131Z,3.80
2017-06-17T19:11:04.847Z,3.23
2017-06-17T19:13:31.551Z,3.67
2017-06-17T19:15:58.278Z,3.87
2017-06-17T19:18:25.105Z,3.60
2017-06-17T19:20:51.830Z,3.70
2017-06-17T19:23:18.537Z,3.67
2017-06-17T19:25:45.304Z,4.03
2017-06-17T19:28:12.069Z,4.20
2017-06-17T19:30:38.854Z,3.70
2017-06-17T19:33:05.636Z,3.40
2017-06-17T19:35:32.358Z,4.43
2017-06-17T19:37:59.109Z,4.07
2017-06-17T19:40:25.885Z,3.63
2017-06-17T19:42:55.347Z,4.17
2017-06-17T19:45:24.878Z,4.20
2017-06-17T19:47:54.788Z,4.10
2017-06-17T19:50:25.536Z,4.03
2017-06-17T19:52:53.252Z,4.80
2017-06-17T19:55:19.995Z,4.20
2017-06-17T19:57:50.119Z,4.07
2017-06-17T20:00:20.599Z,4.27
2017-06-17T20:02:50.006Z,3.83
2017-06-17T20:05:18.051Z,4.60
2017-06-17T20:07:48.339Z,3.90
2017-06-17T20:10:17.791Z,4.03
2017-06-17T20:12:45.265Z,3.73
2017-06-17T20:15:14.205Z,4.17
2017-06-17T20:17:43.068Z,3.93
2017-06-17T20:20:10.712Z,3.83
2017-06-17T20:22:52.324Z,3.53
2017-06-17T20:25:21.420Z,4.47
2017-06-17T20:27:48.178Z,4.20
2017-06-17T20:30:14.910Z,4.80
2017-06-17T20:32:41.637Z,4.73
2017-06-17T20:35:08.403Z,4.13
2017-06-17T20:37:35.146Z,3.53
2017-06-17T20:40:02.037Z,4.30
2017-06-17T20:42:28.802Z,4.40
2017-06-17T20:44:55.492Z,4.30
2017-06-17T20:47:22.206Z,4.97
2017-06-17T20:49:48.928Z,4.67
2017-06-17T20:52:15.670Z,4.77
2017-06-17T20:54:42.393Z,5.17
2017-06-17T20:57:09.128Z,5.20
2017-06-17T20:59:35.847Z,5.27
2017-06-17T21:02:02.593Z,5.37
2017-06-17T21:04:32.694Z,5.70
2017-06-17T21:07:00.993Z,4.83
2017-06-17T21:09:27.738Z,5.10
2017-06-17T21:11:54.485Z,5.10
2017-06-17T21:14:21.180Z,5.10
2017-06-17T21:16:47.930Z,5.50
2017-06-17T21:19:14.650Z,6.50
2017-06-17T21:21:41.406Z,5.90
2017-06-17T21:24:08.131Z,5.10
2017-06-17T21:26:34.888Z,5.77
2017-06-17T21:29:01.640Z,6.23
2017-06-17T21:31:28.361Z,5.83
2017-06-17T21:33:55.150Z,6.90
2017-06-17T21:36:21.901Z,7.00
2017-06-17T21:38:48.620Z,7.67
2017-06-17T21:41:15.369Z,6.80
2017-06-17T21:43:42.093Z,7.07
2017-06-17T21:46:09.447Z,6.60
2017-06-17T21:48:36.371Z,8.13
2017-06-17T21:51:03.119Z,7.50
2017-06-17T21:53:29.813Z,8.30
2017-06-17T21:55:56.530Z,7.80
2017-06-17T21:58:23.257Z,8.67
2017-06-17T22:00:49.986Z,8.90
2017-06-17T22:03:16.762Z,8.33
2017-06-17T22:05:43.473Z,8.27
2017-06-17T22:08:10.193Z,9.57
2017-06-17T22:10:36.980Z,8.03
2017-06-17T22:13:03.726Z,8.60
2017-06-17T22:15:30.461Z,8.73
2017-06-17T22:17:57.202Z,8.53
2017-06-17T22:20:23.965Z,9.60
2017-06-17T22:22:50.726Z,9.17
2017-06-17T22:25:17.466Z,9.30
2017-06-17T22:27:44.240Z,10.10
2017-06-17T22:30:10.958Z,9.90
2017-06-17T22:32:37.673Z,9.30
2017-06-17T22:35:04.461Z,9.53
2017-06-17T22:37:31.225Z,9.37
2017-06-17T22:39:57.982Z,11.73
2017-06-17T22:42:24.797Z,10.10
2017-06-17T22:44:51.553Z,10.77
2017-06-17T22:47:18.249Z,10.50
2017-06-17T22:49:44.933Z,10.47
2017-06-17T22:52:11.695Z,10.60
2017-06-17T22:54:38.410Z,9.60
2017-06-17T22:57:05.214Z,10.87
2017-06-17T22:59:31.934Z,10.90
2017-06-17T23:01:58.653Z,11.40
2017-06-17T23:04:25.560Z,10.80
2017-06-17T23:06:52.269Z,11.33
2017-06-17T23:09:28.289Z,12.03
2017-06-17T23:11:55.194Z,10.73
2017-06-17T23:14:21.963Z,11.37
2017-06-17T23:16:48.726Z,11.67
2017-06-17T23:19:15.519Z,11.90
2017-06-17T23:21:42.260Z,11.40
2017-06-17T23:24:09.010Z,11.70
2017-06-17T23:26:35.747Z,12.00
2017-06-17T23:29:02.463Z,12.70
2017-06-17T23:31:29.193Z,12.30
2017-06-17T23:33:55.950Z,11.10
2017-06-17T23:36:22.693Z,12.80
2017-06-17T23:38:49.545Z,11.93
2017-06-17T23:41:16.268Z,12.20
2017-06-17T23:43:43.015Z,12.50
2017-06-17T23:46:09.722Z,12.90
2017-06-17T23:48:36.643Z,12.90
2017-06-17T23:51:07.479Z,12.73
2017-06-17T23:53:34.800Z,12.03
2017-06-17T23:56:01.657Z,13.40
2017-06-17T23:58:28.409Z,13.63
